sensor_id;sensor_type;location;lat;lon;timestamp;P1;durP1;ratioP1;P2;durP2;ratioP2
69754;SDS011;57023;52.218;5.158;2023-07-08T16:14:21;12.47;;;6.90;;
69754;SDS011;57023;52.218;5.158;2023-07-08T16:19:12;11.90;;;7.00;;
69754;SDS011;57023;52.218;5.158;2023-07-08T16:21:39;9.77;;;6.75;;
69754;SDS011;57023;52.218;5.158;2023-07-08T16:26:30;9.77;;;7.03;;
69754;SDS011;57023;52.218;5.158;2023-07-08T16:28:59;9.68;;;7.53;;
69754;SDS011;57023;52.218;5.158;2023-07-08T16:31:25;11.18;;;7.35;;
69754;SDS011;57023;52.218;5.158;2023-07-08T16:33:53;11.20;;;7.60;;
69754;SDS011;57023;52.218;5.158;2023-07-08T16:36:21;12.23;;;7.50;;
69754;SDS011;57023;52.218;5.158;2023-07-08T16:38:47;10.93;;;7.18;;
69754;SDS011;57023;52.218;5.158;2023-07-08T16:46:04;11.00;;;7.40;;
69754;SDS011;57023;52.218;5.158;2023-07-08T16:50:55;12.03;;;7.60;;
69754;SDS011;57023;52.218;5.158;2023-07-08T16:53:20;11.63;;;7.82;;
69754;SDS011;57023;52.218;5.158;2023-07-08T16:58:11;11.17;;;7.43;;
69754;SDS011;57023;52.218;5.158;2023-07-08T17:00:37;11.73;;;7.75;;
69754;SDS011;57023;52.218;5.158;2023-07-08T17:03:07;11.38;;;7.82;;
69754;SDS011;57023;52.218;5.158;2023-07-08T17:05:34;9.65;;;6.97;;
69754;SDS011;57023;52.218;5.158;2023-07-08T17:08:00;10.65;;;6.57;;
69754;SDS011;57023;52.218;5.158;2023-07-08T17:10:26;9.82;;;6.93;;
69754;SDS011;57023;52.218;5.158;2023-07-08T17:12:51;11.18;;;7.32;;
69754;SDS011;57023;52.218;5.158;2023-07-08T17:15:18;10.50;;;7.25;;
69754;SDS011;57023;52.218;5.158;2023-07-08T17:17:48;9.65;;;6.80;;
69754;SDS011;57023;52.218;5.158;2023-07-08T17:22:45;9.48;;;6.95;;
69754;SDS011;57023;52.218;5.158;2023-07-08T17:25:25;10.35;;;6.93;;
69754;SDS011;57023;52.218;5.158;2023-07-08T17:27:51;9.52;;;6.95;;
69754;SDS011;57023;52.218;5.158;2023-07-08T17:30:18;10.68;;;6.53;;
69754;SDS011;57023;52.218;5.158;2023-07-08T17:35:19;9.13;;;6.65;;
69754;SDS011;57023;52.218;5.158;2023-07-08T17:37:46;10.30;;;6.60;;
69754;SDS011;57023;52.218;5.158;2023-07-08T17:42:56;9.15;;;6.85;;
69754;SDS011;57023;52.218;5.158;2023-07-08T17:47:54;9.63;;;6.88;;
69754;SDS011;57023;52.218;5.158;2023-07-08T17:50:21;11.07;;;7.38;;
69754;SDS011;57023;52.218;5.158;2023-07-08T17:52:48;9.40;;;7.78;;
69754;SDS011;57023;52.218;5.158;2023-07-08T17:55:14;10.70;;;7.50;;
69754;SDS011;57023;52.218;5.158;2023-07-08T17:57:40;9.40;;;7.35;;
69754;SDS011;57023;52.218;5.158;2023-07-08T18:00:14;9.10;;;7.30;;
69754;SDS011;57023;52.218;5.158;2023-07-08T18:02:41;9.60;;;7.40;;
69754;SDS011;57023;52.218;5.158;2023-07-08T18:05:11;9.57;;;7.38;;
69754;SDS011;57023;52.218;5.158;2023-07-08T18:07:38;9.18;;;6.78;;
69754;SDS011;57023;52.218;5.158;2023-07-08T18:12:28;9.77;;;6.60;;
69754;SDS011;57023;52.218;5.158;2023-07-08T18:17:19;12.97;;;7.23;;
69754;SDS011;57023;52.218;5.158;2023-07-08T18:19:44;10.20;;;7.13;;
69754;SDS011;57023;52.218;5.158;2023-07-08T18:22:10;9.77;;;7.00;;
69754;SDS011;57023;52.218;5.158;2023-07-08T18:24:35;9.52;;;6.90;;
69754;SDS011;57023;52.218;5.158;2023-07-08T18:27:00;11.07;;;7.43;;
69754;SDS011;57023;52.218;5.158;2023-07-08T18:29:26;9.83;;;6.97;;
69754;SDS011;57023;52.218;5.158;2023-07-08T18:31:51;9.50;;;7.13;;
69754;SDS011;57023;52.218;5.158;2023-07-08T18:34:17;11.40;;;7.68;;
69754;SDS011;57023;52.218;5.158;2023-07-08T18:36:43;12.20;;;7.65;;
69754;SDS011;57023;52.218;5.158;2023-07-08T18:39:08;10.47;;;7.33;;
69754;SDS011;57023;52.218;5.158;2023-07-08T18:41:55;9.70;;;7.20;;
69754;SDS011;57023;52.218;5.158;2023-07-08T18:44:29;11.10;;;7.25;;
69754;SDS011;57023;52.218;5.158;2023-07-08T18:46:55;9.68;;;6.90;;
69754;SDS011;57023;52.218;5.158;2023-07-08T18:49:21;12.93;;;7.57;;
69754;SDS011;57023;52.218;5.158;2023-07-08T18:51:49;11.50;;;7.32;;
69754;SDS011;57023;52.218;5.158;2023-07-08T18:54:15;9.17;;;7.20;;
69754;SDS011;57023;52.218;5.158;2023-07-08T18:56:41;9.88;;;7.25;;
69754;SDS011;57023;52.218;5.158;2023-07-08T18:59:06;11.60;;;7.40;;
69754;SDS011;57023;52.218;5.158;2023-07-08T19:01:32;9.90;;;7.27;;
69754;SDS011;57023;52.218;5.158;2023-07-08T19:04:01;12.45;;;8.10;;
69754;SDS011;57023;52.218;5.158;2023-07-08T19:06:26;12.50;;;8.57;;
69754;SDS011;57023;52.218;5.158;2023-07-08T19:08:55;12.10;;;8.40;;
69754;SDS011;57023;52.218;5.158;2023-07-08T19:11:21;12.67;;;7.93;;
69754;SDS011;57023;52.218;5.158;2023-07-08T19:13:48;15.10;;;8.00;;
69754;SDS011;57023;52.218;5.158;2023-07-08T19:16:14;10.73;;;8.13;;
69754;SDS011;57023;52.218;5.158;2023-07-08T19:18:42;13.88;;;8.20;;
69754;SDS011;57023;52.218;5.158;2023-07-08T19:21:15;10.85;;;7.82;;
69754;SDS011;57023;52.218;5.158;2023-07-08T19:23:43;13.10;;;7.75;;
69754;SDS011;57023;52.218;5.158;2023-07-08T19:26:14;11.43;;;7.60;;
69754;SDS011;57023;52.218;5.158;2023-07-08T19:28:42;13.50;;;8.13;;
69754;SDS011;57023;52.218;5.158;2023-07-08T19:33:46;10.25;;;8.02;;
69754;SDS011;57023;52.218;5.158;2023-07-08T19:36:11;10.88;;;7.93;;
69754;SDS011;57023;52.218;5.158;2023-07-08T19:38:40;13.23;;;8.00;;
69754;SDS011;57023;52.218;5.158;2023-07-08T19:41:07;12.10;;;8.25;;
69754;SDS011;57023;52.218;5.158;2023-07-08T19:43:34;11.32;;;7.65;;
69754;SDS011;57023;52.218;5.158;2023-07-08T19:45:59;14.13;;;8.07;;
69754;SDS011;57023;52.218;5.158;2023-07-08T19:48:25;14.33;;;7.60;;
69754;SDS011;57023;52.218;5.158;2023-07-08T19:50:50;10.03;;;7.73;;
69754;SDS011;57023;52.218;5.158;2023-07-08T19:53:16;9.95;;;7.90;;
69754;SDS011;57023;52.218;5.158;2023-07-08T19:55:42;11.67;;;8.30;;
69754;SDS011;57023;52.218;5.158;2023-07-08T19:58:10;11.53;;;8.63;;
69754;SDS011;57023;52.218;5.158;2023-07-08T20:00:37;10.95;;;8.70;;
69754;SDS011;57023;52.218;5.158;2023-07-08T20:03:04;12.48;;;9.25;;
69754;SDS011;57023;52.218;5.158;2023-07-08T20:05:31;12.98;;;9.48;;
69754;SDS011;57023;52.218;5.158;2023-07-08T20:08:03;11.73;;;8.75;;
69754;SDS011;57023;52.218;5.158;2023-07-08T20:10:29;11.65;;;7.07;;
69754;SDS011;57023;52.218;5.158;2023-07-08T20:12:57;11.53;;;7.40;;
69754;SDS011;57023;52.218;5.158;2023-07-08T20:15:24;11.38;;;7.30;;
69754;SDS011;57023;52.218;5.158;2023-07-08T20:17:51;12.13;;;7.78;;
69754;SDS011;57023;52.218;5.158;2023-07-08T20:20:21;12.80;;;7.40;;
69754;SDS011;57023;52.218;5.158;2023-07-08T20:22:48;13.80;;;7.57;;
69754;SDS011;57023;52.218;5.158;2023-07-08T20:25:14;11.40;;;7.77;;
69754;SDS011;57023;52.218;5.158;2023-07-08T20:27:40;12.38;;;7.47;;
69754;SDS011;57023;52.218;5.158;2023-07-08T20:30:26;13.93;;;7.45;;
69754;SDS011;57023;52.218;5.158;2023-07-08T20:32:52;11.35;;;7.75;;
69754;SDS011;57023;52.218;5.158;2023-07-08T20:35:19;10.98;;;7.35;;
69754;SDS011;57023;52.218;5.158;2023-07-08T20:37:47;10.38;;;7.15;;
69754;SDS011;57023;52.218;5.158;2023-07-08T20:40:17;11.97;;;7.53;;
69754;SDS011;57023;52.218;5.158;2023-07-08T20:42:47;11.40;;;7.43;;
69754;SDS011;57023;52.218;5.158;2023-07-08T20:45:13;9.73;;;7.50;;
69754;SDS011;57023;52.218;5.158;2023-07-08T20:47:40;11.27;;;7.70;;
69754;SDS011;57023;52.218;5.158;2023-07-08T20:50:19;11.20;;;7.80;;
69754;SDS011;57023;52.218;5.158;2023-07-08T20:52:45;13.45;;;7.63;;
69754;SDS011;57023;52.218;5.158;2023-07-08T20:55:12;10.40;;;7.57;;
69754;SDS011;57023;52.218;5.158;2023-07-08T20:57:39;12.45;;;7.70;;
69754;SDS011;57023;52.218;5.158;2023-07-08T21:00:06;10.15;;;7.25;;
69754;SDS011;57023;52.218;5.158;2023-07-08T21:02:34;9.75;;;7.32;;
69754;SDS011;57023;52.218;5.158;2023-07-08T21:04:59;11.53;;;7.13;;
69754;SDS011;57023;52.218;5.158;2023-07-08T21:07:25;9.37;;;6.90;;
69754;SDS011;57023;52.218;5.158;2023-07-08T21:09:50;10.30;;;7.30;;
69754;SDS011;57023;52.218;5.158;2023-07-08T21:12:15;10.13;;;7.13;;
69754;SDS011;57023;52.218;5.158;2023-07-08T21:14:43;10.82;;;7.15;;
69754;SDS011;57023;52.218;5.158;2023-07-08T21:17:15;10.63;;;7.47;;
69754;SDS011;57023;52.218;5.158;2023-07-08T21:19:42;9.45;;;7.03;;
69754;SDS011;57023;52.218;5.158;2023-07-08T21:22:09;12.13;;;7.50;;
69754;SDS011;57023;52.218;5.158;2023-07-08T21:24:35;12.48;;;7.50;;
69754;SDS011;57023;52.218;5.158;2023-07-08T21:27:00;10.87;;;7.43;;
69754;SDS011;57023;52.218;5.158;2023-07-08T21:29:26;11.47;;;7.93;;
69754;SDS011;57023;52.218;5.158;2023-07-08T21:31:51;10.53;;;7.73;;
69754;SDS011;57023;52.218;5.158;2023-07-08T21:34:16;10.27;;;8.27;;
69754;SDS011;57023;52.218;5.158;2023-07-08T21:36:42;12.40;;;8.67;;
69754;SDS011;57023;52.218;5.158;2023-07-08T21:39:20;12.07;;;7.65;;
69754;SDS011;57023;52.218;5.158;2023-07-08T21:41:53;11.05;;;8.00;;
69754;SDS011;57023;52.218;5.158;2023-07-08T21:44:19;9.87;;;7.63;;
69754;SDS011;57023;52.218;5.158;2023-07-08T21:46:44;10.60;;;8.03;;
69754;SDS011;57023;52.218;5.158;2023-07-08T21:49:09;10.93;;;7.53;;
69754;SDS011;57023;52.218;5.158;2023-07-08T21:51:35;13.00;;;7.90;;
69754;SDS011;57023;52.218;5.158;2023-07-08T21:54:03;10.70;;;7.70;;
69754;SDS011;57023;52.218;5.158;2023-07-08T21:56:29;10.27;;;7.47;;
69754;SDS011;57023;52.218;5.158;2023-07-08T21:58:55;13.20;;;8.13;;
69754;SDS011;57023;52.218;5.158;2023-07-08T22:01:21;10.67;;;7.23;;
69754;SDS011;57023;52.218;5.158;2023-07-08T22:03:48;12.05;;;7.20;;
69754;SDS011;57023;52.218;5.158;2023-07-08T22:06:14;10.27;;;7.40;;
69754;SDS011;57023;52.218;5.158;2023-07-08T22:08:41;12.57;;;6.72;;
69754;SDS011;57023;52.218;5.158;2023-07-08T22:11:13;9.33;;;7.33;;
69754;SDS011;57023;52.218;5.158;2023-07-08T22:13:47;10.63;;;6.70;;
69754;SDS011;57023;52.218;5.158;2023-07-08T22:16:14;10.10;;;6.83;;
69754;SDS011;57023;52.218;5.158;2023-07-08T22:18:41;11.07;;;6.78;;
69754;SDS011;57023;52.218;5.158;2023-07-08T22:21:20;9.95;;;7.00;;
69754;SDS011;57023;52.218;5.158;2023-07-08T22:23:53;12.57;;;7.45;;
69754;SDS011;57023;52.218;5.158;2023-07-08T22:26:22;10.77;;;7.28;;
69754;SDS011;57023;52.218;5.158;2023-07-08T22:28:48;10.38;;;7.10;;
69754;SDS011;57023;52.218;5.158;2023-07-08T22:31:24;11.67;;;7.40;;
69754;SDS011;57023;52.218;5.158;2023-07-08T22:33:51;10.50;;;7.30;;
69754;SDS011;57023;52.218;5.158;2023-07-08T22:36:19;10.20;;;7.10;;
69754;SDS011;57023;52.218;5.158;2023-07-08T22:39:01;10.33;;;7.70;;
69754;SDS011;57023;52.218;5.158;2023-07-08T22:41:31;10.02;;;7.47;;
69754;SDS011;57023;52.218;5.158;2023-07-08T22:44:10;9.85;;;7.22;;
69754;SDS011;57023;52.218;5.158;2023-07-08T22:46:36;10.25;;;7.80;;
69754;SDS011;57023;52.218;5.158;2023-07-08T22:49:02;12.50;;;8.37;;
69754;SDS011;57023;52.218;5.158;2023-07-08T22:51:27;11.00;;;8.07;;
69754;SDS011;57023;52.218;5.158;2023-07-08T22:54:01;12.25;;;7.90;;
69754;SDS011;57023;52.218;5.158;2023-07-08T22:56:26;11.88;;;8.02;;
69754;SDS011;57023;52.218;5.158;2023-07-08T22:58:52;12.13;;;7.77;;
69754;SDS011;57023;52.218;5.158;2023-07-08T23:01:17;10.83;;;8.00;;
69754;SDS011;57023;52.218;5.158;2023-07-08T23:03:42;11.53;;;7.60;;
69754;SDS011;57023;52.218;5.158;2023-07-08T23:06:08;11.43;;;8.20;;
69754;SDS011;57023;52.218;5.158;2023-07-08T23:08:35;12.65;;;8.05;;
69754;SDS011;57023;52.218;5.158;2023-07-08T23:11:02;12.37;;;8.17;;
69754;SDS011;57023;52.218;5.158;2023-07-08T23:13:32;10.93;;;7.70;;
69754;SDS011;57023;52.218;5.158;2023-07-08T23:18:39;10.32;;;7.78;;
69754;SDS011;57023;52.218;5.158;2023-07-08T23:21:05;11.27;;;7.68;;
69754;SDS011;57023;52.218;5.158;2023-07-08T23:23:31;9.80;;;7.37;;
69754;SDS011;57023;52.218;5.158;2023-07-08T23:25:56;11.40;;;7.77;;
69754;SDS011;57023;52.218;5.158;2023-07-08T23:28:22;13.13;;;8.07;;
69754;SDS011;57023;52.218;5.158;2023-07-08T23:30:50;9.63;;;7.28;;
69754;SDS011;57023;52.218;5.158;2023-07-08T23:33:16;10.73;;;7.70;;
69754;SDS011;57023;52.218;5.158;2023-07-08T23:35:42;9.87;;;7.30;;
69754;SDS011;57023;52.218;5.158;2023-07-08T23:38:11;10.93;;;7.07;;
69754;SDS011;57023;52.218;5.158;2023-07-08T23:40:40;12.63;;;7.68;;
69754;SDS011;57023;52.218;5.158;2023-07-08T23:43:07;12.40;;;7.43;;
69754;SDS011;57023;52.218;5.158;2023-07-08T23:45:35;11.68;;;7.28;;
69754;SDS011;57023;52.218;5.158;2023-07-08T23:48:03;9.73;;;7.32;;
69754;SDS011;57023;52.218;5.158;2023-07-08T23:50:29;10.33;;;7.57;;
69754;SDS011;57023;52.218;5.158;2023-07-08T23:52:55;11.10;;;7.67;;
69754;SDS011;57023;52.218;5.158;2023-07-08T23:55:21;10.35;;;7.25;;
69754;SDS011;57023;52.218;5.158;2023-07-08T23:57:47;11.27;;;6.90;;
